sensor_id;sensor_type;location;lat;lon;timestamp;noise_LAeq;noise_LA_min;noise_LA_max;noise_LA01;noise_LA95
49215;Laerm;45943;53.148;8.204;2023-08-21T00:01:00;39.03;34.50;45.11;;
49215;Laerm;45943;53.148;8.204;2023-08-21T00:03:26;39.35;34.04;44.46;;
49215;Laerm;45943;53.148;8.204;2023-08-21T00:05:52;39.01;34.50;43.79;;
49215;Laerm;45943;53.148;8.204;2023-08-21T00:08:18;39.41;35.64;41.90;;
49215;Laerm;45943;53.148;8.204;2023-08-21T00:10:44;39.35;35.29;44.46;;
49215;Laerm;45943;53.148;8.204;2023-08-21T00:13:10;39.36;35.64;41.98;;
49215;Laerm;45943;53.148;8.204;2023-08-21T00:15:38;39.47;34.04;42.42;;
49215;Laerm;45943;53.148;8.204;2023-08-21T00:18:05;39.26;34.91;44.18;;
49215;Laerm;45943;53.148;8.204;2023-08-21T00:20:31;39.08;34.50;42.35;;
49215;Laerm;45943;53.148;8.204;2023-08-21T00:22:57;43.19;34.04;59.18;;
49215;Laerm;45943;53.148;8.204;2023-08-21T00:25:23;39.31;34.91;42.56;;
49215;Laerm;45943;53.148;8.204;2023-08-21T00:27:49;39.52;35.64;42.35;;
49215;Laerm;45943;53.148;8.204;2023-08-21T00:30:15;39.66;35.29;42.49;;
49215;Laerm;45943;53.148;8.204;2023-08-21T00:32:41;39.57;34.91;42.42;;
49215;Laerm;45943;53.148;8.204;2023-08-21T00:35:07;40.14;35.96;44.04;;
49215;Laerm;45943;53.148;8.204;2023-08-21T00:37:33;39.62;35.29;43.07;;
49215;Laerm;45943;53.148;8.204;2023-08-21T00:39:59;39.71;34.91;42.13;;
49215;Laerm;45943;53.148;8.204;2023-08-21T00:42:25;42.15;34.91;68.22;;
49215;Laerm;45943;53.148;8.204;2023-08-21T00:44:51;39.66;34.50;47.72;;
49215;Laerm;45943;53.148;8.204;2023-08-21T00:47:18;39.74;35.96;42.89;;
49215;Laerm;45943;53.148;8.204;2023-08-21T00:49:45;39.69;33.53;42.42;;
49215;Laerm;45943;53.148;8.204;2023-08-21T00:52:12;39.66;35.29;43.25;;
49215;Laerm;45943;53.148;8.204;2023-08-21T00:54:40;39.58;34.91;42.42;;
49215;Laerm;45943;53.148;8.204;2023-08-21T00:57:06;39.60;34.50;49.17;;
49215;Laerm;45943;53.148;8.204;2023-08-21T00:59:33;39.36;34.50;43.31;;
49215;Laerm;45943;53.148;8.204;2023-08-21T01:01:59;40.24;35.96;43.79;;
49215;Laerm;45943;53.148;8.204;2023-08-21T01:04:25;42.09;37.92;49.52;;
49215;Laerm;45943;53.148;8.204;2023-08-21T01:06:51;42.31;35.96;46.51;;
49215;Laerm;45943;53.148;8.204;2023-08-21T01:09:27;40.11;35.96;48.43;;
49215;Laerm;45943;53.148;8.204;2023-08-21T01:12:14;39.62;36.26;42.56;;
49215;Laerm;45943;53.148;8.204;2023-08-21T01:15:00;39.97;35.29;43.58;;
49215;Laerm;45943;53.148;8.204;2023-08-21T01:17:29;48.59;35.29;68.50;;
49215;Laerm;45943;53.148;8.204;2023-08-21T01:19:56;43.23;38.12;48.62;;
49215;Laerm;45943;53.148;8.204;2023-08-21T01:22:26;40.29;35.64;43.53;;
49215;Laerm;45943;53.148;8.204;2023-08-21T01:24:56;40.50;36.26;49.72;;
49215;Laerm;45943;53.148;8.204;2023-08-21T01:27:22;44.63;38.65;52.66;;
49215;Laerm;45943;53.148;8.204;2023-08-21T01:29:48;41.92;38.30;44.46;;
49215;Laerm;45943;53.148;8.204;2023-08-21T01:32:23;41.96;38.12;46.46;;
49215;Laerm;45943;53.148;8.204;2023-08-21T01:34:54;43.06;38.12;52.24;;
49215;Laerm;45943;53.148;8.204;2023-08-21T01:37:22;46.19;38.65;55.33;;
49215;Laerm;45943;53.148;8.204;2023-08-21T01:39:49;45.01;36.80;61.01;;
49215;Laerm;45943;53.148;8.204;2023-08-21T01:42:15;41.69;38.12;45.11;;
49215;Laerm;45943;53.148;8.204;2023-08-21T01:44:41;41.07;37.29;46.78;;
49215;Laerm;45943;53.148;8.204;2023-08-21T01:47:07;41.99;37.51;45.54;;
49215;Laerm;45943;53.148;8.204;2023-08-21T01:49:33;41.17;37.51;45.43;;
49215;Laerm;45943;53.148;8.204;2023-08-21T01:51:59;43.22;38.65;47.70;;
49215;Laerm;45943;53.148;8.204;2023-08-21T01:54:25;42.18;38.65;45.43;;
49215;Laerm;45943;53.148;8.204;2023-08-21T01:56:51;42.68;39.12;54.38;;
49215;Laerm;45943;53.148;8.204;2023-08-21T01:59:17;41.61;37.72;50.17;;
49215;Laerm;45943;53.148;8.204;2023-08-21T02:01:43;42.61;38.65;46.61;;
49215;Laerm;45943;53.148;8.204;2023-08-21T02:04:09;42.21;38.65;44.99;;
49215;Laerm;45943;53.148;8.204;2023-08-21T02:06:35;41.96;38.65;47.70;;
49215;Laerm;45943;53.148;8.204;2023-08-21T02:09:01;42.10;38.48;45.33;;
49215;Laerm;45943;53.148;8.204;2023-08-21T02:11:27;42.23;38.81;44.23;;
49215;Laerm;45943;53.148;8.204;2023-08-21T02:13:53;41.16;36.54;44.59;;
49215;Laerm;45943;53.148;8.204;2023-08-21T02:16:19;42.11;38.12;46.67;;
49215;Laerm;45943;53.148;8.204;2023-08-21T02:18:47;43.10;39.12;57.16;;
49215;Laerm;45943;53.148;8.204;2023-08-21T02:21:13;42.29;38.97;53.91;;
49215;Laerm;45943;53.148;8.204;2023-08-21T02:23:39;42.24;38.30;52.53;;
49215;Laerm;45943;53.148;8.204;2023-08-21T02:26:05;42.35;38.81;45.71;;
49215;Laerm;45943;53.148;8.204;2023-08-21T02:28:31;60.98;38.81;81.64;;
49215;Laerm;45943;53.148;8.204;2023-08-21T02:30:57;42.63;39.12;46.62;;
49215;Laerm;45943;53.148;8.204;2023-08-21T02:33:23;46.12;39.41;62.06;;
49215;Laerm;45943;53.148;8.204;2023-08-21T02:35:49;45.27;39.68;59.93;;
49215;Laerm;45943;53.148;8.204;2023-08-21T02:38:15;43.21;39.27;47.51;;
49215;Laerm;45943;53.148;8.204;2023-08-21T02:40:41;41.90;38.65;44.71;;
49215;Laerm;45943;53.148;8.204;2023-08-21T02:43:07;41.80;37.72;44.95;;
49215;Laerm;45943;53.148;8.204;2023-08-21T02:45:33;42.30;38.62;47.46;;
49215;Laerm;45943;53.148;8.204;2023-08-21T02:47:59;42.48;38.48;56.39;;
49215;Laerm;45943;53.148;8.204;2023-08-21T02:50:25;43.13;39.12;58.46;;
49215;Laerm;45943;53.148;8.204;2023-08-21T02:52:51;42.52;38.48;45.57;;
49215;Laerm;45943;53.148;8.204;2023-08-21T02:55:17;46.65;39.81;62.56;;
49215;Laerm;45943;53.148;8.204;2023-08-21T02:57:43;42.87;39.41;45.83;;
49215;Laerm;45943;53.148;8.204;2023-08-21T03:00:10;42.40;39.41;46.11;;
49215;Laerm;45943;53.148;8.204;2023-08-21T03:02:37;42.72;40.41;45.11;;
49215;Laerm;45943;53.148;8.204;2023-08-21T03:05:04;45.62;39.27;60.08;;
49215;Laerm;45943;53.148;8.204;2023-08-21T03:07:30;42.80;39.55;45.71;;
49215;Laerm;45943;53.148;8.204;2023-08-21T03:09:56;42.95;38.97;49.00;;
49215;Laerm;45943;53.148;8.204;2023-08-21T03:12:22;42.84;39.55;47.00;;
49215;Laerm;45943;53.148;8.204;2023-08-21T03:14:48;43.69;38.97;45.99;;
49215;Laerm;45943;53.148;8.204;2023-08-21T03:17:14;45.45;40.30;62.07;;
49215;Laerm;45943;53.148;8.204;2023-08-21T03:19:40;45.04;41.40;59.89;;
49215;Laerm;45943;53.148;8.204;2023-08-21T03:22:06;43.49;40.52;47.00;;
49215;Laerm;45943;53.148;8.204;2023-08-21T03:24:32;43.63;40.41;48.46;;
49215;Laerm;45943;53.148;8.204;2023-08-21T03:26:58;43.48;41.31;56.42;;
49215;Laerm;45943;53.148;8.204;2023-08-21T03:29:24;47.99;42.13;62.85;;
49215;Laerm;45943;53.148;8.204;2023-08-21T03:31:52;54.71;41.22;74.53;;
49215;Laerm;45943;53.148;8.204;2023-08-21T03:34:17;46.41;41.31;61.68;;
49215;Laerm;45943;53.148;8.204;2023-08-21T03:36:43;49.64;41.90;65.47;;
49215;Laerm;45943;53.148;8.204;2023-08-21T03:39:09;44.54;42.89;53.81;;
49215;Laerm;45943;53.148;8.204;2023-08-21T03:41:35;54.73;42.35;69.93;;
49215;Laerm;45943;53.148;8.204;2023-08-21T03:44:01;44.22;42.21;51.67;;
49215;Laerm;45943;53.148;8.204;2023-08-21T03:46:27;44.34;42.21;47.68;;
49215;Laerm;45943;53.148;8.204;2023-08-21T03:48:53;47.11;41.66;62.05;;
49215;Laerm;45943;53.148;8.204;2023-08-21T03:51:19;46.45;41.79;60.93;;
49215;Laerm;45943;53.148;8.204;2023-08-21T03:53:45;48.54;42.21;63.43;;
49215;Laerm;45943;53.148;8.204;2023-08-21T03:56:11;45.84;41.40;59.98;;
49215;Laerm;45943;53.148;8.204;2023-08-21T03:58:37;44.30;41.66;47.92;;
49215;Laerm;45943;53.148;8.204;2023-08-21T04:01:03;44.93;40.83;60.38;;
49215;Laerm;45943;53.148;8.204;2023-08-21T04:03:29;47.47;41.82;62.09;;
49215;Laerm;45943;53.148;8.204;2023-08-21T04:05:55;46.14;42.28;59.38;;
49215;Laerm;45943;53.148;8.204;2023-08-21T04:08:25;50.77;42.82;65.74;;
49215;Laerm;45943;53.148;8.204;2023-08-21T04:10:51;65.24;43.53;77.38;;
49215;Laerm;45943;53.148;8.204;2023-08-21T04:13:19;44.71;42.28;53.11;;
49215;Laerm;45943;53.148;8.204;2023-08-21T04:15:45;50.31;42.56;65.08;;
49215;Laerm;45943;53.148;8.204;2023-08-21T04:18:12;44.40;42.21;53.44;;
49215;Laerm;45943;53.148;8.204;2023-08-21T04:20:37;58.46;42.89;77.37;;
49215;Laerm;45943;53.148;8.204;2023-08-21T04:23:04;46.42;42.42;59.22;;
49215;Laerm;45943;53.148;8.204;2023-08-21T04:25:30;45.91;41.98;59.34;;
49215;Laerm;45943;53.148;8.204;2023-08-21T04:27:56;47.94;42.21;62.19;;
49215;Laerm;45943;53.148;8.204;2023-08-21T04:30:21;45.65;42.28;57.53;;
49215;Laerm;45943;53.148;8.204;2023-08-21T04:32:48;47.66;42.60;61.43;;
49215;Laerm;45943;53.148;8.204;2023-08-21T04:35:14;51.61;42.79;65.80;;
49215;Laerm;45943;53.148;8.204;2023-08-21T04:37:46;44.27;42.13;52.98;;
49215;Laerm;45943;53.148;8.204;2023-08-21T04:40:13;52.94;42.06;68.02;;
49215;Laerm;45943;53.148;8.204;2023-08-21T04:42:39;47.78;42.63;59.74;;
49215;Laerm;45943;53.148;8.204;2023-08-21T04:45:06;47.56;42.35;60.97;;
49215;Laerm;45943;53.148;8.204;2023-08-21T04:47:32;47.55;40.83;62.53;;
49215;Laerm;45943;53.148;8.204;2023-08-21T04:49:58;51.71;43.53;65.80;;
49215;Laerm;45943;53.148;8.204;2023-08-21T04:52:24;48.52;43.36;64.57;;
49215;Laerm;45943;53.148;8.204;2023-08-21T04:54:51;53.48;42.82;71.24;;
49215;Laerm;45943;53.148;8.204;2023-08-21T04:57:17;49.34;42.95;67.56;;
49215;Laerm;45943;53.148;8.204;2023-08-21T04:59:44;48.35;42.82;65.05;;
49215;Laerm;45943;53.148;8.204;2023-08-21T05:02:10;46.54;42.69;61.44;;
49215;Laerm;45943;53.148;8.204;2023-08-21T05:04:36;49.94;41.82;64.08;;
49215;Laerm;45943;53.148;8.204;2023-08-21T05:07:03;52.76;42.28;67.35;;
49215;Laerm;45943;53.148;8.204;2023-08-21T05:09:30;65.71;42.06;78.80;;
49215;Laerm;45943;53.148;8.204;2023-08-21T05:11:56;52.65;42.82;65.48;;
49215;Laerm;45943;53.148;8.204;2023-08-21T05:14:23;60.13;42.56;78.73;;
49215;Laerm;45943;53.148;8.204;2023-08-21T05:16:49;47.56;43.02;62.07;;
49215;Laerm;45943;53.148;8.204;2023-08-21T05:19:16;46.04;42.76;60.92;;
49215;Laerm;45943;53.148;8.204;2023-08-21T05:21:43;54.97;42.89;70.09;;
49215;Laerm;45943;53.148;8.204;2023-08-21T05:24:10;52.49;42.21;71.94;;
49215;Laerm;45943;53.148;8.204;2023-08-21T05:26:36;50.87;43.01;68.30;;
49215;Laerm;45943;53.148;8.204;2023-08-21T05:29:05;54.19;43.53;69.02;;
49215;Laerm;45943;53.148;8.204;2023-08-21T05:31:31;53.11;43.74;67.37;;
49215;Laerm;45943;53.148;8.204;2023-08-21T05:33:57;55.59;46.43;72.01;;
49215;Laerm;45943;53.148;8.204;2023-08-21T05:36:23;57.30;49.70;69.20;;
49215;Laerm;45943;53.148;8.204;2023-08-21T05:38:49;60.26;52.16;85.62;;
49215;Laerm;45943;53.148;8.204;2023-08-21T05:41:17;61.22;50.64;83.24;;
49215;Laerm;45943;53.148;8.204;2023-08-21T05:43:43;62.27;49.63;77.39;;
49215;Laerm;45943;53.148;8.204;2023-08-21T05:46:11;57.18;47.82;74.22;;
49215;Laerm;45943;53.148;8.204;2023-08-21T05:48:37;56.41;49.18;66.85;;
49215;Laerm;45943;53.148;8.204;2023-08-21T05:51:03;55.88;48.91;69.06;;
49215;Laerm;45943;53.148;8.204;2023-08-21T05:53:30;56.26;48.70;68.51;;
49215;Laerm;45943;53.148;8.204;2023-08-21T05:55:56;58.54;48.44;74.93;;
49215;Laerm;45943;53.148;8.204;2023-08-21T05:58:23;60.04;55.68;79.44;;
49215;Laerm;45943;53.148;8.204;2023-08-21T06:00:49;59.50;55.73;69.90;;
49215;Laerm;45943;53.148;8.204;2023-08-21T06:03:15;59.97;55.90;80.16;;
49215;Laerm;45943;53.148;8.204;2023-08-21T06:05:41;60.98;52.53;75.32;;
49215;Laerm;45943;53.148;8.204;2023-08-21T06:08:07;58.35;48.81;70.53;;
49215;Laerm;45943;53.148;8.204;2023-08-21T06:10:34;54.17;48.83;65.41;;
49215;Laerm;45943;53.148;8.204;2023-08-21T06:13:00;54.70;48.46;66.35;;
49215;Laerm;45943;53.148;8.204;2023-08-21T06:15:26;54.85;48.43;68.52;;
49215;Laerm;45943;53.148;8.204;2023-08-21T06:17:52;60.59;48.56;77.74;;
49215;Laerm;45943;53.148;8.204;2023-08-21T06:20:18;57.44;49.06;79.72;;
49215;Laerm;45943;53.148;8.204;2023-08-21T06:22:45;58.10;49.66;71.52;;
49215;Laerm;45943;53.148;8.204;2023-08-21T06:25:11;54.19;48.96;64.69;;
49215;Laerm;45943;53.148;8.204;2023-08-21T06:27:38;54.01;49.59;63.22;;
49215;Laerm;45943;53.148;8.204;2023-08-21T06:30:04;58.96;50.41;69.98;;
49215;Laerm;45943;53.148;8.204;2023-08-21T06:32:30;58.81;51.89;75.36;;
49215;Laerm;45943;53.148;8.204;2023-08-21T06:34:56;58.41;51.15;80.81;;
49215;Laerm;45943;53.148;8.204;2023-08-21T06:37:22;57.56;50.85;77.35;;
49215;Laerm;45943;53.148;8.204;2023-08-21T06:39:48;59.45;50.81;77.14;;
49215;Laerm;45943;53.148;8.204;2023-08-21T06:42:14;59.36;49.59;75.80;;
49215;Laerm;45943;53.148;8.204;2023-08-21T06:44:40;53.44;49.38;65.10;;
49215;Laerm;45943;53.148;8.204;2023-08-21T06:47:06;53.59;49.58;65.02;;
49215;Laerm;45943;53.148;8.204;2023-08-21T06:49:32;54.86;50.07;65.05;;
49215;Laerm;45943;53.148;8.204;2023-08-21T06:51:58;59.69;49.98;74.27;;
49215;Laerm;45943;53.148;8.204;2023-08-21T06:54:25;61.72;50.80;79.85;;
49215;Laerm;45943;53.148;8.204;2023-08-21T06:56:51;59.53;51.04;80.75;;
49215;Laerm;45943;53.148;8.204;2023-08-21T06:59:17;57.58;49.76;75.85;;
49215;Laerm;45943;53.148;8.204;2023-08-21T07:01:42;55.88;46.73;74.82;;
49215;Laerm;45943;53.148;8.204;2023-08-21T07:04:08;59.19;48.86;71.78;;
49215;Laerm;45943;53.148;8.204;2023-08-21T07:06:34;58.22;49.80;75.07;;
49215;Laerm;45943;53.148;8.204;2023-08-21T07:09:01;59.61;49.96;74.70;;
49215;Laerm;45943;53.148;8.204;2023-08-21T07:11:27;54.34;49.88;63.93;;
49215;Laerm;45943;53.148;8.204;2023-08-21T07:13:53;55.05;49.75;70.49;;
49215;Laerm;45943;53.148;8.204;2023-08-21T07:16:19;62.43;49.21;84.05;;
49215;Laerm;45943;53.148;8.204;2023-08-21T07:18:45;60.36;49.16;89.13;;
49215;Laerm;45943;53.148;8.204;2023-08-21T07:21:11;66.09;50.34;94.72;;
49215;Laerm;45943;53.148;8.204;2023-08-21T07:23:37;63.33;50.26;89.40;;
49215;Laerm;45943;53.148;8.204;2023-08-21T07:26:03;60.19;48.99;81.87;;
49215;Laerm;45943;53.148;8.204;2023-08-21T07:28:31;62.89;48.96;89.68;;
49215;Laerm;45943;53.148;8.204;2023-08-21T07:30:58;57.85;48.86;81.98;;
49215;Laerm;45943;53.148;8.204;2023-08-21T07:33:27;59.08;48.14;87.79;;
49215;Laerm;45943;53.148;8.204;2023-08-21T07:36:04;55.84;48.89;67.45;;
49215;Laerm;45943;53.148;8.204;2023-08-21T07:38:31;52.65;49.14;66.38;;
49215;Laerm;45943;53.148;8.204;2023-08-21T07:41:08;53.34;48.89;65.70;;
49215;Laerm;45943;53.148;8.204;2023-08-21T07:43:38;57.78;50.07;72.98;;
49215;Laerm;45943;53.148;8.204;2023-08-21T07:46:05;54.10;49.63;64.90;;
49215;Laerm;45943;53.148;8.204;2023-08-21T07:48:31;58.36;49.55;69.21;;
49215;Laerm;45943;53.148;8.204;2023-08-21T07:50:57;55.11;49.54;65.01;;
49215;Laerm;45943;53.148;8.204;2023-08-21T07:53:24;57.28;49.24;68.90;;
49215;Laerm;45943;53.148;8.204;2023-08-21T07:55:51;56.52;49.89;67.21;;
49215;Laerm;45943;53.148;8.204;2023-08-21T07:58:18;54.47;49.31;71.51;;
49215;Laerm;45943;53.148;8.204;2023-08-21T08:00:44;55.04;48.73;71.39;;
49215;Laerm;45943;53.148;8.204;2023-08-21T08:03:10;56.21;50.37;66.72;;
49215;Laerm;45943;53.148;8.204;2023-08-21T08:05:37;55.63;48.06;65.01;;
49215;Laerm;45943;53.148;8.204;2023-08-21T08:08:03;57.85;50.22;72.64;;
49215;Laerm;45943;53.148;8.204;2023-08-21T08:10:29;54.55;49.84;66.29;;
49215;Laerm;45943;53.148;8.204;2023-08-21T08:12:56;59.51;50.35;72.49;;
49215;Laerm;45943;53.148;8.204;2023-08-21T08:15:22;58.32;43.01;76.37;;
49215;Laerm;45943;53.148;8.204;2023-08-21T08:17:49;45.92;42.42;57.04;;
49215;Laerm;45943;53.148;8.204;2023-08-21T08:20:19;53.19;43.36;69.44;;
49215;Laerm;45943;53.148;8.204;2023-08-21T08:22:45;59.13;43.48;74.33;;
49215;Laerm;45943;53.148;8.204;2023-08-21T08:25:11;55.94;42.13;68.17;;
49215;Laerm;45943;53.148;8.204;2023-08-21T08:27:37;52.07;43.07;63.24;;
49215;Laerm;45943;53.148;8.204;2023-08-21T08:30:04;50.05;42.35;63.99;;
49215;Laerm;45943;53.148;8.204;2023-08-21T08:32:30;51.78;42.76;65.94;;
49215;Laerm;45943;53.148;8.204;2023-08-21T08:34:56;51.68;40.41;66.45;;
49215;Laerm;45943;53.148;8.204;2023-08-21T08:37:22;54.73;42.69;74.17;;
49215;Laerm;45943;53.148;8.204;2023-08-21T08:39:48;58.84;43.07;72.81;;
49215;Laerm;45943;53.148;8.204;2023-08-21T08:42:14;55.90;43.89;68.07;;
49215;Laerm;45943;53.148;8.204;2023-08-21T08:44:42;50.96;39.94;64.76;;
49215;Laerm;45943;53.148;8.204;2023-08-21T08:47:11;53.55;41.31;63.94;;
49215;Laerm;45943;53.148;8.204;2023-08-21T08:49:38;50.50;40.41;63.49;;
49215;Laerm;45943;53.148;8.204;2023-08-21T08:52:04;53.02;41.98;68.52;;
49215;Laerm;45943;53.148;8.204;2023-08-21T08:54:31;46.43;39.55;58.78;;
49215;Laerm;45943;53.148;8.204;2023-08-21T08:56:58;51.95;42.28;63.64;;
49215;Laerm;45943;53.148;8.204;2023-08-21T08:59:24;48.00;42.06;62.87;;
49215;Laerm;45943;53.148;8.204;2023-08-21T09:01:50;51.39;40.52;66.65;;
49215;Laerm;45943;53.148;8.204;2023-08-21T09:04:16;52.61;41.82;69.99;;
49215;Laerm;45943;53.148;8.204;2023-08-21T09:06:42;50.80;42.41;62.36;;
49215;Laerm;45943;53.148;8.204;2023-08-21T09:09:08;49.97;41.90;63.27;;
49215;Laerm;45943;53.148;8.204;2023-08-21T09:11:42;52.71;42.69;66.62;;
49215;Laerm;45943;53.148;8.204;2023-08-21T09:14:09;52.04;40.41;67.19;;
49215;Laerm;45943;53.148;8.204;2023-08-21T09:16:35;51.89;41.71;68.59;;
49215;Laerm;45943;53.148;8.204;2023-08-21T09:19:02;47.37;41.03;60.43;;
49215;Laerm;45943;53.148;8.204;2023-08-21T09:21:28;57.23;41.31;73.18;;
49215;Laerm;45943;53.148;8.204;2023-08-21T09:24:01;53.23;42.73;67.63;;
49215;Laerm;45943;53.148;8.204;2023-08-21T09:26:33;52.94;42.49;64.87;;
49215;Laerm;45943;53.148;8.204;2023-08-21T09:29:00;51.83;42.35;67.07;;
49215;Laerm;45943;53.148;8.204;2023-08-21T09:31:31;55.72;44.32;71.87;;
49215;Laerm;45943;53.148;8.204;2023-08-21T09:34:02;53.15;44.83;66.03;;
49215;Laerm;45943;53.148;8.204;2023-08-21T09:36:34;48.58;43.13;63.29;;
49215;Laerm;45943;53.148;8.204;2023-08-21T09:39:02;51.20;43.74;62.90;;
49215;Laerm;45943;53.148;8.204;2023-08-21T09:41:29;52.18;43.36;63.68;;
49215;Laerm;45943;53.148;8.204;2023-08-21T09:43:59;57.66;44.37;71.02;;
49215;Laerm;45943;53.148;8.204;2023-08-21T09:46:29;62.04;43.13;77.55;;
49215;Laerm;45943;53.148;8.204;2023-08-21T09:48:55;57.20;38.81;67.25;;
49215;Laerm;45943;53.148;8.204;2023-08-21T09:51:21;49.06;39.94;64.61;;
49215;Laerm;45943;53.148;8.204;2023-08-21T09:53:48;59.12;42.69;71.11;;
49215;Laerm;45943;53.148;8.204;2023-08-21T09:56:17;44.77;41.49;60.85;;
49215;Laerm;45943;53.148;8.204;2023-08-21T09:58:43;53.35;39.81;67.28;;
49215;Laerm;45943;53.148;8.204;2023-08-21T10:01:10;52.08;41.49;63.99;;
49215;Laerm;45943;53.148;8.204;2023-08-21T10:03:42;49.62;41.82;62.72;;
49215;Laerm;45943;53.148;8.204;2023-08-21T10:06:11;60.67;42.06;75.63;;
49215;Laerm;45943;53.148;8.204;2023-08-21T10:08:40;58.80;42.76;77.34;;
49215;Laerm;45943;53.148;8.204;2023-08-21T10:11:07;63.53;49.17;73.66;;
49215;Laerm;45943;53.148;8.204;2023-08-21T10:13:36;56.89;42.49;76.66;;
49215;Laerm;45943;53.148;8.204;2023-08-21T10:16:03;51.96;42.21;69.42;;
49215;Laerm;45943;53.148;8.204;2023-08-21T10:21:19;53.18;39.41;68.83;;
49215;Laerm;45943;53.148;8.204;2023-08-21T10:23:49;52.18;41.58;62.63;;
49215;Laerm;45943;53.148;8.204;2023-08-21T10:26:19;50.57;42.28;63.02;;
49215;Laerm;45943;53.148;8.204;2023-08-21T10:28:55;52.19;39.68;71.16;;
49215;Laerm;45943;53.148;8.204;2023-08-21T10:31:38;49.64;38.81;64.00;;
49215;Laerm;45943;53.148;8.204;2023-08-21T10:34:06;48.79;40.52;60.67;;
49215;Laerm;45943;53.148;8.204;2023-08-21T10:39:19;59.40;44.91;75.81;;
49215;Laerm;45943;53.148;8.204;2023-08-21T10:42:10;56.15;44.46;71.26;;
49215;Laerm;45943;53.148;8.204;2023-08-21T10:47:31;52.02;43.01;69.39;;
49215;Laerm;45943;53.148;8.204;2023-08-21T10:50:05;50.81;43.48;69.80;;
49215;Laerm;45943;53.148;8.204;2023-08-21T10:55:01;62.51;43.74;72.39;;
49215;Laerm;45943;53.148;8.204;2023-08-21T10:57:31;50.11;42.06;66.53;;
49215;Laerm;45943;53.148;8.204;2023-08-21T11:00:02;51.36;41.40;65.66;;
49215;Laerm;45943;53.148;8.204;2023-08-21T11:02:34;52.25;40.30;68.43;;
49215;Laerm;45943;53.148;8.204;2023-08-21T11:05:01;50.75;40.83;65.91;;
49215;Laerm;45943;53.148;8.204;2023-08-21T11:07:29;49.80;39.94;62.73;;
49215;Laerm;45943;53.148;8.204;2023-08-21T11:09:55;53.05;40.18;71.29;;
49215;Laerm;45943;53.148;8.204;2023-08-21T11:12:22;50.66;41.22;61.48;;
49215;Laerm;45943;53.148;8.204;2023-08-21T11:14:49;58.66;37.92;72.59;;
49215;Laerm;45943;53.148;8.204;2023-08-21T11:17:15;49.39;36.80;62.47;;
49215;Laerm;45943;53.148;8.204;2023-08-21T11:19:42;51.04;37.92;66.58;;
49215;Laerm;45943;53.148;8.204;2023-08-21T11:22:09;54.87;39.68;69.07;;
49215;Laerm;45943;53.148;8.204;2023-08-21T11:24:43;53.20;38.12;71.78;;
49215;Laerm;45943;53.148;8.204;2023-08-21T11:27:11;60.13;38.30;81.90;;
49215;Laerm;45943;53.148;8.204;2023-08-21T11:29:39;48.67;38.48;65.84;;
49215;Laerm;45943;53.148;8.204;2023-08-21T11:32:10;52.11;39.47;72.95;;
49215;Laerm;45943;53.148;8.204;2023-08-21T11:34:36;46.76;40.06;61.56;;
49215;Laerm;45943;53.148;8.204;2023-08-21T11:37:04;52.44;42.89;64.32;;
49215;Laerm;45943;53.148;8.204;2023-08-21T11:39:48;58.03;43.01;74.84;;
49215;Laerm;45943;53.148;8.204;2023-08-21T11:42:15;55.12;43.36;69.68;;
49215;Laerm;45943;53.148;8.204;2023-08-21T11:44:54;51.12;42.89;63.52;;
49215;Laerm;45943;53.148;8.204;2023-08-21T11:47:21;47.98;42.63;60.38;;
49215;Laerm;45943;53.148;8.204;2023-08-21T11:49:48;66.78;41.74;81.19;;
49215;Laerm;45943;53.148;8.204;2023-08-21T11:52:20;50.65;42.69;64.05;;
49215;Laerm;45943;53.148;8.204;2023-08-21T11:54:50;56.13;43.01;74.14;;
49215;Laerm;45943;53.148;8.204;2023-08-21T11:57:16;50.86;42.21;67.79;;
49215;Laerm;45943;53.148;8.204;2023-08-21T11:59:43;50.29;42.56;65.36;;
49215;Laerm;45943;53.148;8.204;2023-08-21T12:02:17;48.53;42.76;61.23;;
49215;Laerm;45943;53.148;8.204;2023-08-21T12:04:44;50.69;42.35;68.41;;
49215;Laerm;45943;53.148;8.204;2023-08-21T12:07:10;50.81;42.35;62.52;;
49215;Laerm;45943;53.148;8.204;2023-08-21T12:09:36;50.33;42.89;70.99;;
49215;Laerm;45943;53.148;8.204;2023-08-21T12:12:03;50.78;42.28;66.52;;
49215;Laerm;45943;53.148;8.204;2023-08-21T12:14:40;49.37;42.56;59.53;;
49215;Laerm;45943;53.148;8.204;2023-08-21T12:17:06;47.84;42.28;62.62;;
49215;Laerm;45943;53.148;8.204;2023-08-21T12:19:33;51.75;42.82;61.13;;
49215;Laerm;45943;53.148;8.204;2023-08-21T12:21:59;63.39;44.37;77.44;;
49215;Laerm;45943;53.148;8.204;2023-08-21T12:24:25;67.11;59.89;80.24;;
49215;Laerm;45943;53.148;8.204;2023-08-21T12:26:51;71.17;51.67;81.41;;
49215;Laerm;45943;53.148;8.204;2023-08-21T12:29:17;50.47;42.95;61.32;;
49215;Laerm;45943;53.148;8.204;2023-08-21T12:31:43;50.74;42.13;62.52;;
49215;Laerm;45943;53.148;8.204;2023-08-21T12:34:09;48.61;41.98;63.00;;
49215;Laerm;45943;53.148;8.204;2023-08-21T12:36:36;47.39;42.28;60.77;;
49215;Laerm;45943;53.148;8.204;2023-08-21T12:39:03;56.78;42.69;73.77;;
49215;Laerm;45943;53.148;8.204;2023-08-21T12:41:30;50.65;43.79;68.12;;
49215;Laerm;45943;53.148;8.204;2023-08-21T12:43:55;60.79;49.70;77.42;;
49215;Laerm;45943;53.148;8.204;2023-08-21T12:46:21;55.34;43.79;67.97;;
49215;Laerm;45943;53.148;8.204;2023-08-21T12:48:47;51.13;43.31;64.29;;
49215;Laerm;45943;53.148;8.204;2023-08-21T12:51:13;54.70;43.64;68.44;;
49215;Laerm;45943;53.148;8.204;2023-08-21T12:53:39;51.28;42.63;69.61;;
49215;Laerm;45943;53.148;8.204;2023-08-21T12:56:05;51.41;43.19;62.92;;
49215;Laerm;45943;53.148;8.204;2023-08-21T12:58:31;53.65;43.42;67.13;;
49215;Laerm;45943;53.148;8.204;2023-08-21T13:00:58;52.52;43.99;70.44;;
49215;Laerm;45943;53.148;8.204;2023-08-21T13:03:24;54.86;43.64;69.61;;
49215;Laerm;45943;53.148;8.204;2023-08-21T13:05:50;52.56;43.58;62.70;;
49215;Laerm;45943;53.148;8.204;2023-08-21T13:08:16;56.34;43.01;72.29;;
49215;Laerm;45943;53.148;8.204;2023-08-21T13:11:01;57.71;45.03;73.20;;
49215;Laerm;45943;53.148;8.204;2023-08-21T13:13:28;54.24;43.94;64.62;;
49215;Laerm;45943;53.148;8.204;2023-08-21T13:15:54;52.57;42.63;64.21;;
49215;Laerm;45943;53.148;8.204;2023-08-21T13:18:20;55.76;49.15;69.19;;
49215;Laerm;45943;53.148;8.204;2023-08-21T13:20:46;58.13;48.76;73.08;;
49215;Laerm;45943;53.148;8.204;2023-08-21T13:23:12;58.31;49.62;71.50;;
49215;Laerm;45943;53.148;8.204;2023-08-21T13:25:38;56.25;49.20;66.67;;
49215;Laerm;45943;53.148;8.204;2023-08-21T13:28:04;56.76;49.31;67.61;;
49215;Laerm;45943;53.148;8.204;2023-08-21T13:30:30;62.09;49.95;79.02;;
49215;Laerm;45943;53.148;8.204;2023-08-21T13:32:59;59.12;50.29;75.11;;
49215;Laerm;45943;53.148;8.204;2023-08-21T13:35:25;54.18;49.26;63.59;;
49215;Laerm;45943;53.148;8.204;2023-08-21T13:37:51;56.86;50.19;66.91;;
49215;Laerm;45943;53.148;8.204;2023-08-21T13:40:18;59.10;49.09;71.04;;
49215;Laerm;45943;53.148;8.204;2023-08-21T13:42:45;60.81;49.98;72.99;;
49215;Laerm;45943;53.148;8.204;2023-08-21T13:45:14;54.95;49.63;66.84;;
49215;Laerm;45943;53.148;8.204;2023-08-21T13:47:41;58.11;50.44;68.44;;
49215;Laerm;45943;53.148;8.204;2023-08-21T13:50:08;58.87;50.15;69.09;;
49215;Laerm;45943;53.148;8.204;2023-08-21T13:52:35;56.90;50.32;68.91;;
49215;Laerm;45943;53.148;8.204;2023-08-21T13:55:01;59.35;51.23;72.84;;